createdAt,value
2022-11-16T00:02:39.765Z,0.00
2022-11-16T00:07:39.719Z,0.00
2022-11-16T00:12:39.654Z,0.00
2022-11-16T00:17:39.602Z,0.00
2022-11-16T00:22:39.536Z,0.00
2022-11-16T00:27:39.485Z,0.00
2022-11-16T00:32:39.423Z,0.00
2022-11-16T00:37:39.373Z,0.00
2022-11-16T00:42:39.323Z,0.00
2022-11-16T00:47:39.267Z,0.00
2022-11-16T00:52:39.208Z,0.00
2022-11-16T00:57:39.164Z,0.00
2022-11-16T01:02:39.094Z,0.00
2022-11-16T01:07:39.041Z,0.00
2022-11-16T01:12:38.993Z,0.00
2022-11-16T01:17:38.936Z,0.00
2022-11-16T01:22:38.868Z,0.00
2022-11-16T01:27:38.815Z,0.00
2022-11-16T01:32:38.754Z,0.00
2022-11-16T01:37:38.695Z,0.00
2022-11-16T01:42:38.634Z,0.00
2022-11-16T01:47:38.573Z,0.00
2022-11-16T01:52:38.513Z,0.00
2022-11-16T01:57:38.466Z,0.00
2022-11-16T02:02:38.404Z,0.00
2022-11-16T02:07:38.437Z,0.00
2022-11-16T02:12:38.276Z,0.00
2022-11-16T02:17:38.223Z,0.00
2022-11-16T02:22:38.163Z,0.00
2022-11-16T02:27:38.103Z,0.00
2022-11-16T02:32:38.052Z,0.00
2022-11-16T02:37:37.992Z,0.00
2022-11-16T02:42:37.930Z,0.00
2022-11-16T02:47:37.882Z,0.00
2022-11-16T02:52:37.814Z,0.00
2022-11-16T02:57:37.762Z,0.00
2022-11-16T03:02:37.711Z,0.00
2022-11-16T03:07:37.645Z,0.00
2022-11-16T03:12:37.591Z,0.00
2022-11-16T03:17:37.532Z,0.00
2022-11-16T03:22:37.477Z,0.00
2022-11-16T03:27:37.424Z,0.00
2022-11-16T03:32:37.361Z,0.00
2022-11-16T03:37:37.311Z,0.00
2022-11-16T03:42:37.254Z,0.00
2022-11-16T03:47:37.214Z,0.00
2022-11-16T03:52:37.142Z,0.00
2022-11-16T03:57:37.102Z,0.00
2022-11-16T04:02:37.033Z,0.00
2022-11-16T04:07:36.991Z,0.00
2022-11-16T04:12:36.930Z,0.00
2022-11-16T04:17:36.871Z,0.00
2022-11-16T04:22:36.823Z,0.00
2022-11-16T04:27:36.775Z,0.00
2022-11-16T04:32:36.712Z,0.00
2022-11-16T04:37:36.669Z,0.00
2022-11-16T04:42:36.603Z,0.00
2022-11-16T04:47:36.552Z,0.00
2022-11-16T04:52:36.501Z,0.00
2022-11-16T04:57:36.442Z,0.00
2022-11-16T05:02:36.383Z,0.00
2022-11-16T05:07:36.471Z,0.00
2022-11-16T05:12:36.282Z,0.00
2022-11-16T05:17:36.243Z,0.00
2022-11-16T05:22:36.173Z,0.00
2022-11-16T05:27:36.123Z,0.00
2022-11-16T05:32:36.062Z,0.00
2022-11-16T05:37:36.014Z,0.00
2022-11-16T05:42:35.963Z,0.00
2022-11-16T05:47:35.910Z,0.00
2022-11-16T05:52:35.843Z,1.00
2022-11-16T05:57:35.804Z,2.00
2022-11-16T06:02:35.831Z,6.00
2022-11-16T06:07:35.745Z,14.00
2022-11-16T06:12:35.634Z,29.00
2022-11-16T06:17:35.577Z,52.00
2022-11-16T06:22:35.502Z,76.00
2022-11-16T06:27:35.474Z,95.00
2022-11-16T06:32:35.405Z,139.00
2022-11-16T06:37:35.367Z,214.00
2022-11-16T06:42:35.285Z,414.00
2022-11-16T06:47:35.235Z,685.00
2022-11-16T06:52:35.177Z,878.00
2022-11-16T06:57:35.134Z,1058.00
2022-11-16T07:02:35.099Z,1228.00
2022-11-16T07:07:35.061Z,1546.00
2022-11-16T07:12:34.943Z,1902.00
2022-11-16T07:17:34.934Z,2051.00
2022-11-16T07:22:34.824Z,2133.00
2022-11-16T07:27:34.773Z,1929.00
2022-11-16T07:32:34.745Z,1862.00
2022-11-16T07:37:34.644Z,1829.00
2022-11-16T07:42:34.645Z,1605.00
2022-11-16T07:47:34.605Z,1721.00
2022-11-16T07:52:34.617Z,1844.00
2022-11-16T07:57:34.445Z,1751.00
2022-11-16T08:02:34.364Z,1786.00
2022-11-16T08:07:34.378Z,1737.00
2022-11-16T08:12:34.238Z,1575.00
2022-11-16T08:17:34.190Z,1861.00
2022-11-16T08:22:34.111Z,2285.00
2022-11-16T08:27:34.056Z,2356.00
2022-11-16T08:32:33.986Z,2439.00
2022-11-16T08:37:33.989Z,2637.00
2022-11-16T08:42:33.873Z,2782.00
2022-11-16T08:47:33.862Z,2566.00
2022-11-16T08:52:33.725Z,2394.00
2022-11-16T08:57:33.730Z,2315.00
2022-11-16T09:02:33.614Z,2261.00
2022-11-16T09:07:33.630Z,2364.00
2022-11-16T09:12:33.494Z,2495.00
2022-11-16T09:17:33.436Z,2537.00
2022-11-16T09:22:33.365Z,2577.00
2022-11-16T09:27:33.315Z,2603.00
2022-11-16T09:32:33.236Z,2527.00
2022-11-16T09:37:33.184Z,2399.00
2022-11-16T09:42:33.114Z,2519.00
2022-11-16T09:47:33.057Z,2742.00
2022-11-16T09:52:32.996Z,2667.00
2022-11-16T09:57:32.922Z,2606.00
2022-11-16T10:02:32.865Z,2727.00
2022-11-16T10:07:32.848Z,2870.00
2022-11-16T10:12:32.760Z,2660.00
2022-11-16T10:17:32.676Z,2720.00
2022-11-16T10:22:32.626Z,2555.00
2022-11-16T10:27:32.546Z,2562.00
2022-11-16T10:32:32.497Z,3164.00
2022-11-16T10:37:32.428Z,3194.00
2022-11-16T10:42:32.399Z,3569.00
2022-11-16T10:47:33.932Z,3453.00
2022-11-16T10:52:32.254Z,3517.00
2022-11-16T10:57:32.186Z,3464.00
2022-11-16T11:02:32.134Z,3693.00
2022-11-16T11:07:32.133Z,3465.00
2022-11-16T11:12:32.000Z,3615.00
2022-11-16T11:17:31.939Z,4547.00
2022-11-16T11:22:31.878Z,4981.00
2022-11-16T11:27:31.811Z,4341.00
2022-11-16T11:32:31.758Z,4679.00
2022-11-16T11:37:31.695Z,4415.00
2022-11-16T11:42:31.640Z,5409.00
2022-11-16T11:52:32.526Z,3356.00
2022-11-16T11:57:31.448Z,2440.00
2022-11-16T12:02:31.477Z,2863.00
2022-11-16T12:07:31.358Z,2598.00
2022-11-16T12:12:31.271Z,3136.00
2022-11-16T12:17:31.197Z,2638.00
2022-11-16T12:22:31.148Z,2886.00
2022-11-16T12:27:31.083Z,3102.00
2022-11-16T12:32:31.026Z,2947.00
2022-11-16T12:37:30.958Z,3046.00
2022-11-16T12:42:30.899Z,2522.00
2022-11-16T12:47:30.831Z,2308.00
2022-11-16T12:52:30.771Z,2221.00
2022-11-16T12:57:30.719Z,2218.00
2022-11-16T13:02:30.638Z,2030.00
2022-11-16T13:07:30.591Z,2247.00
2022-11-16T13:12:30.508Z,2041.00
2022-11-16T13:17:30.437Z,1766.00
2022-11-16T13:22:30.377Z,1757.00
2022-11-16T13:27:30.313Z,1898.00
2022-11-16T13:32:30.238Z,2067.00
2022-11-16T13:37:30.161Z,2143.00
2022-11-16T13:42:30.101Z,1715.00
2022-11-16T13:47:30.032Z,1451.00
2022-11-16T13:53:06.467Z,1491.00
2022-11-16T13:57:30.939Z,1589.00
2022-11-16T14:02:29.873Z,1360.00
2022-11-16T14:07:29.812Z,1329.00
2022-11-16T14:12:29.743Z,1471.00
2022-11-16T14:17:29.680Z,1567.00
2022-11-16T14:22:29.603Z,1496.00
2022-11-16T14:27:30.925Z,1490.00
2022-11-16T14:32:29.469Z,1493.00
2022-11-16T14:37:29.407Z,1108.00
2022-11-16T14:42:29.846Z,939.00
2022-11-16T14:47:30.246Z,895.00
2022-11-16T14:52:29.159Z,685.00
2022-11-16T14:57:29.109Z,644.00
2022-11-16T15:02:29.077Z,602.00
2022-11-16T15:07:29.071Z,623.00
2022-11-16T15:12:28.914Z,483.00
2022-11-16T15:17:33.212Z,277.00
2022-11-16T15:22:28.754Z,153.00
2022-11-16T15:27:28.684Z,106.00
2022-11-16T15:32:28.615Z,77.00
2022-11-16T15:37:28.586Z,45.00
2022-11-16T15:42:28.501Z,28.00
2022-11-16T15:47:28.405Z,14.00
2022-11-16T15:52:28.347Z,7.00
2022-11-16T15:57:28.273Z,2.00
2022-11-16T16:02:28.229Z,1.00
2022-11-16T16:07:28.185Z,0.00
2022-11-16T16:12:28.100Z,0.00
2022-11-16T16:17:28.054Z,0.00
2022-11-16T16:22:27.958Z,0.00
2022-11-16T16:27:27.883Z,0.00
2022-11-16T16:32:27.837Z,0.00
2022-11-16T16:37:27.743Z,0.00
2022-11-16T16:42:27.676Z,0.00
2022-11-16T16:47:27.591Z,0.00
2022-11-16T16:52:27.541Z,0.00
2022-11-16T16:57:27.478Z,0.00
2022-11-16T17:02:27.409Z,0.00
2022-11-16T17:07:27.527Z,0.00
2022-11-16T17:12:27.317Z,0.00
2022-11-16T17:17:27.220Z,0.00
2022-11-16T17:22:27.138Z,0.00
2022-11-16T17:27:27.074Z,0.00
2022-11-16T17:32:27.002Z,0.00
2022-11-16T17:37:27.261Z,0.00
2022-11-16T17:42:26.865Z,0.00
2022-11-16T17:47:26.791Z,0.00
2022-11-16T17:52:26.745Z,0.00
2022-11-16T17:57:26.673Z,0.00
2022-11-16T18:02:26.632Z,0.00
2022-11-16T18:07:26.597Z,0.00
2022-11-16T18:12:26.463Z,0.00
2022-11-16T18:17:26.385Z,0.00
2022-11-16T18:22:26.344Z,0.00
2022-11-16T18:27:26.255Z,0.00
2022-11-16T18:32:26.197Z,0.00
2022-11-16T18:37:26.122Z,0.00
2022-11-16T18:42:26.090Z,0.00
2022-11-16T18:47:26.010Z,0.00
2022-11-16T18:52:25.953Z,0.00
2022-11-16T18:57:25.900Z,0.00
2022-11-16T19:02:25.819Z,0.00
2022-11-16T19:07:25.802Z,0.00
2022-11-16T19:12:25.684Z,0.00
2022-11-16T19:17:25.616Z,0.00
2022-11-16T19:22:25.542Z,0.00
2022-11-16T19:27:25.482Z,0.00
2022-11-16T19:32:25.461Z,0.00
2022-11-16T19:37:25.357Z,0.00
2022-11-16T19:42:25.265Z,0.00
2022-11-16T19:47:25.211Z,0.00
2022-11-16T19:52:25.166Z,0.00
2022-11-16T19:57:25.088Z,0.00
2022-11-16T20:02:25.024Z,0.00
2022-11-16T20:07:24.998Z,0.00
2022-11-16T20:12:24.881Z,0.00
2022-11-16T20:17:24.822Z,0.00
2022-11-16T20:22:24.766Z,0.00
2022-11-16T20:27:24.705Z,0.00
2022-11-16T20:32:24.617Z,0.00
2022-11-16T20:37:24.543Z,0.00
2022-11-16T20:42:24.477Z,0.00
2022-11-16T20:47:24.419Z,0.00
2022-11-16T20:52:24.347Z,0.00
2022-11-16T20:57:24.277Z,0.00
2022-11-16T21:02:24.217Z,0.00
2022-11-16T21:07:24.217Z,0.00
2022-11-16T21:12:24.119Z,0.00
2022-11-16T21:17:24.017Z,0.00
2022-11-16T21:22:27.047Z,0.00
2022-11-16T21:27:24.885Z,0.00
2022-11-16T21:32:23.838Z,0.00
2022-11-16T21:37:23.805Z,0.00
2022-11-16T21:42:23.732Z,0.00
2022-11-16T21:47:23.675Z,0.00
2022-11-16T21:52:23.600Z,0.00
2022-11-16T21:57:23.556Z,0.00
2022-11-16T22:02:23.478Z,0.00
2022-11-16T22:07:23.484Z,0.00
2022-11-16T22:12:23.376Z,0.00
2022-11-16T22:17:23.249Z,0.00
2022-11-16T22:22:23.208Z,0.00
2022-11-16T22:27:23.160Z,0.00
2022-11-16T22:32:23.109Z,0.00
2022-11-16T22:37:23.031Z,0.00
2022-11-16T22:42:22.965Z,0.00
2022-11-16T22:47:22.872Z,0.00
2022-11-16T22:52:22.832Z,0.00
2022-11-16T22:57:22.769Z,0.00
2022-11-16T23:02:22.693Z,0.00
2022-11-16T23:07:22.641Z,0.00
2022-11-16T23:12:22.532Z,0.00
2022-11-16T23:17:22.465Z,0.00
2022-11-16T23:22:22.402Z,0.00
2022-11-16T23:27:22.344Z,0.00
2022-11-16T23:32:22.266Z,0.00
2022-11-16T23:37:22.199Z,0.00
2022-11-16T23:42:22.146Z,0.00
2022-11-16T23:47:22.052Z,0.00
2022-11-16T23:52:21.992Z,0.00
2022-11-16T23:57:21.928Z,0.00
